Hampton Falls, NH (03844)

11:53 AM EDT on May 26, 2017 (GMT -0400)
Hampton Falls River Estuary | | Change Station
Active Advisory: Coastal Flood Statement Active Notice: Coastal Flood Statement

Elev 33 ft 42.91 °N, 70.86 °W | Updated 19 seconds ago

Overcast
Overcast
54.1 °F
Feels Like 54.1 °F
N
1.8
Wind Variable Wind from WNW
Gusts 4.9 mph

Today
High -- | Low -- °F
--% Chance of Precip.
Yesterday
High -- | Low -- °F
Precip. -- in
Pressure 29.51 in
Visibility 4.0 miles
Clouds Mostly Cloudy 800 ft
Overcast 1300 ft
Dew Point 38 °F
Humidity 54%
Rainfall 1.44 in
Snow Depth Not available.
5:10 AM 8:10 PM
New Moon, 1% visible
METAR KPSM 261458Z 34010KT 4SM -RA BR BKN008 OVC013 11/10 A2950 RMK AO2A RAB47 SLP992 P0000 60002 T01100098 55001
Pressure 29.51 in
Visibility 4.0 miles
Clouds Mostly Cloudy 800 ft
Overcast 1300 ft
Dew Point 38 °F
Humidity 54%
Rainfall 1.44 in
Snow Depth Not available.
5:10 AM 8:10 PM
New Moon, 1% visible
METAR KPSM 261458Z 34010KT 4SM -RA BR BKN008 OVC013 11/10 A2950 RMK AO2A RAB47 SLP992 P0000 60002 T01100098 55001

Get Your Daily Forecast Email!

Thanks for signing up!

Be on the lookout for a verification email in your inbox.

You'll start receiving severe weather alerts in your inbox..

×

10-Day Weather Forecast

Almanac

Astronomy

May. 26, 2017 Rise Set
Actual Time
Civil Twilight
Nautical Twilight
Astronomical Twilight
Moon
Length of Visible Light
Length of Day
Tomorrow will be .
, % of the Moon is Illuminated

Today's Extremes

State Highs State Lows

Community

WunderPhotos

Category 6

Welcome to Category 6. This is the collective home for Weather Underground's featured writeups by Dr. Jeff Masters (right), Bob Henson (left), Chris Burt, and other regular contributors.

Nearby

Air Quality

  Air Quality AQ Index Pollutant
Not available.

Snow Depth

Station Depth Elevation

Earthquake Activity

City Distance Mag. Time & Date
Minimum magnitude displayed is 2.5.

Coastal Water Temperatures

Place Temperature

Stations

Nearby Weather Stations

Station Location Temp. Windchill Dew Point Humidity Wind Precip. Elev Updated Type
                   

Watches & Warnings

Coastal Flood Statement
Issued: 10:42 AM EDT May. 26, 2017 – National Weather Service

... Isolated minor coastal flooding around the time of high tide
shortly after noon today...

* location... the southwest and midcoast of Maine and seacoast of
New Hampshire.

* Coastal flooding... isolated and minor.

* Timing... around the time of high tide near noon today.